sensor_id;sensor_type;location;lat;lon;timestamp;pressure;altitude;pressure_sealevel;temperature;humidity
44453;BME280;30155;52.164;21.236;2024-02-26T00:02:23;99725.92;;;3.97;79.76
44453;BME280;30155;52.164;21.236;2024-02-26T00:07:15;99724.98;;;3.94;79.88
44453;BME280;30155;52.164;21.236;2024-02-26T00:12:06;99725.30;;;3.93;79.73
44453;BME280;30155;52.164;21.236;2024-02-26T00:16:59;99724.82;;;3.89;79.65
44453;BME280;30155;52.164;21.236;2024-02-26T00:21:50;99722.60;;;3.89;80.22
44453;BME280;30155;52.164;21.236;2024-02-26T00:26:44;99715.09;;;3.90;80.03
44453;BME280;30155;52.164;21.236;2024-02-26T00:31:36;99710.80;;;3.83;79.95
44453;BME280;30155;52.164;21.236;2024-02-26T00:36:28;99707.73;;;3.84;80.50
44453;BME280;30155;52.164;21.236;2024-02-26T00:41:20;99702.57;;;3.83;80.16
44453;BME280;30155;52.164;21.236;2024-02-26T00:46:11;99703.91;;;3.76;80.04
44453;BME280;30155;52.164;21.236;2024-02-26T00:51:03;99698.60;;;3.69;80.00
44453;BME280;30155;52.164;21.236;2024-02-26T00:55:56;99696.30;;;3.62;80.10
44453;BME280;30155;52.164;21.236;2024-02-26T01:00:47;99687.95;;;3.57;80.38
44453;BME280;30155;52.164;21.236;2024-02-26T01:05:39;99689.98;;;3.50;80.40
44453;BME280;30155;52.164;21.236;2024-02-26T01:10:30;99690.14;;;3.44;80.44
44453;BME280;30155;52.164;21.236;2024-02-26T01:15:22;99688.27;;;3.33;80.49
44453;BME280;30155;52.164;21.236;2024-02-26T01:20:14;99684.78;;;3.25;80.57
44453;BME280;30155;52.164;21.236;2024-02-26T01:25:06;99685.90;;;3.17;79.87
44453;BME280;30155;52.164;21.236;2024-02-26T01:29:58;99684.84;;;3.10;80.42
44453;BME280;30155;52.164;21.236;2024-02-26T01:34:50;99694.16;;;3.07;80.76
44453;BME280;30155;52.164;21.236;2024-02-26T01:39:41;99689.63;;;3.04;80.74
44453;BME280;30155;52.164;21.236;2024-02-26T01:44:33;99686.03;;;2.92;80.16
44453;BME280;30155;52.164;21.236;2024-02-26T01:49:24;99681.92;;;2.81;80.03
44453;BME280;30155;52.164;21.236;2024-02-26T01:54:16;99690.27;;;2.75;80.19
44453;BME280;30155;52.164;21.236;2024-02-26T01:59:09;99690.58;;;2.68;80.64
44453;BME280;30155;52.164;21.236;2024-02-26T02:04:00;99698.13;;;2.69;80.83
44453;BME280;30155;52.164;21.236;2024-02-26T02:08:52;99701.77;;;2.60;80.44
44453;BME280;30155;52.164;21.236;2024-02-26T02:13:44;99703.58;;;2.52;80.21
44453;BME280;30155;52.164;21.236;2024-02-26T02:18:36;99698.69;;;2.44;80.03
44453;BME280;30155;52.164;21.236;2024-02-26T02:23:27;99697.95;;;2.38;80.23
44453;BME280;30155;52.164;21.236;2024-02-26T02:28:19;99699.90;;;2.35;80.49
44453;BME280;30155;52.164;21.236;2024-02-26T02:33:11;99701.89;;;2.32;80.86
44453;BME280;30155;52.164;21.236;2024-02-26T02:38:03;99705.44;;;2.32;80.91
44453;BME280;30155;52.164;21.236;2024-02-26T02:42:55;99708.77;;;2.29;80.60
44453;BME280;30155;52.164;21.236;2024-02-26T02:47:46;99708.91;;;2.18;79.92
44453;BME280;30155;52.164;21.236;2024-02-26T02:52:38;99712.36;;;2.09;80.16
44453;BME280;30155;52.164;21.236;2024-02-26T02:57:30;99716.08;;;2.03;80.56
44453;BME280;30155;52.164;21.236;2024-02-26T03:02:22;99729.39;;;1.98;80.77
44453;BME280;30155;52.164;21.236;2024-02-26T03:07:15;99732.15;;;1.93;81.05
44453;BME280;30155;52.164;21.236;2024-02-26T03:12:07;99732.40;;;1.91;80.86
44453;BME280;30155;52.164;21.236;2024-02-26T03:16:58;99735.39;;;1.83;80.57
44453;BME280;30155;52.164;21.236;2024-02-26T03:21:50;99734.92;;;1.75;80.41
44453;BME280;30155;52.164;21.236;2024-02-26T03:26:42;99739.75;;;1.71;80.44
44453;BME280;30155;52.164;21.236;2024-02-26T03:31:33;99737.65;;;1.75;81.22
44453;BME280;30155;52.164;21.236;2024-02-26T03:36:25;99738.24;;;1.72;80.75
44453;BME280;30155;52.164;21.236;2024-02-26T03:41:16;99745.25;;;1.68;80.69
44453;BME280;30155;52.164;21.236;2024-02-26T03:46:08;99737.30;;;1.70;81.26
44453;BME280;30155;52.164;21.236;2024-02-26T03:51:02;99735.64;;;1.71;81.17
44453;BME280;30155;52.164;21.236;2024-02-26T03:55:54;99736.30;;;1.70;81.12
44453;BME280;30155;52.164;21.236;2024-02-26T04:00:46;99729.98;;;1.76;81.29
44453;BME280;30155;52.164;21.236;2024-02-26T04:05:38;99731.21;;;1.76;81.48
44453;BME280;30155;52.164;21.236;2024-02-26T04:10:30;99724.50;;;1.70;81.16
44453;BME280;30155;52.164;21.236;2024-02-26T04:15:21;99728.21;;;1.69;81.44
44453;BME280;30155;52.164;21.236;2024-02-26T04:20:14;99731.77;;;1.68;81.78
44453;BME280;30155;52.164;21.236;2024-02-26T04:25:08;99731.20;;;1.67;81.85
44453;BME280;30155;52.164;21.236;2024-02-26T04:29:59;99733.84;;;1.64;81.61
44453;BME280;30155;52.164;21.236;2024-02-26T04:34:51;99724.49;;;1.61;81.95
44453;BME280;30155;52.164;21.236;2024-02-26T04:39:42;99728.29;;;1.62;82.05
44453;BME280;30155;52.164;21.236;2024-02-26T04:44:34;99722.98;;;1.62;81.75
44453;BME280;30155;52.164;21.236;2024-02-26T04:49:25;99727.44;;;1.58;81.76
44453;BME280;30155;52.164;21.236;2024-02-26T04:54:17;99734.70;;;1.56;81.84
44453;BME280;30155;52.164;21.236;2024-02-26T04:59:09;99738.98;;;1.56;82.17
44453;BME280;30155;52.164;21.236;2024-02-26T05:04:00;99737.25;;;1.60;82.30
44453;BME280;30155;52.164;21.236;2024-02-26T05:08:52;99733.61;;;1.63;82.09
44453;BME280;30155;52.164;21.236;2024-02-26T05:13:43;99728.14;;;1.63;82.44
44453;BME280;30155;52.164;21.236;2024-02-26T05:18:36;99727.53;;;1.60;82.32
44453;BME280;30155;52.164;21.236;2024-02-26T05:23:28;99737.94;;;1.55;82.12
44453;BME280;30155;52.164;21.236;2024-02-26T05:28:19;99736.68;;;1.54;82.17
44453;BME280;30155;52.164;21.236;2024-02-26T05:33:12;99734.65;;;1.59;82.46
44453;BME280;30155;52.164;21.236;2024-02-26T05:38:08;99740.52;;;1.64;82.59
44453;BME280;30155;52.164;21.236;2024-02-26T05:43:00;99746.33;;;1.74;82.54
44453;BME280;30155;52.164;21.236;2024-02-26T05:47:51;99749.77;;;1.84;82.69
44453;BME280;30155;52.164;21.236;2024-02-26T05:52:43;99757.41;;;1.87;82.65
44453;BME280;30155;52.164;21.236;2024-02-26T05:57:34;99763.23;;;1.92;82.82
44453;BME280;30155;52.164;21.236;2024-02-26T06:02:26;99761.94;;;1.99;82.90
44453;BME280;30155;52.164;21.236;2024-02-26T06:07:17;99770.75;;;2.11;83.06
44453;BME280;30155;52.164;21.236;2024-02-26T06:12:09;99772.52;;;2.23;82.87
44453;BME280;30155;52.164;21.236;2024-02-26T06:17:01;99770.45;;;2.37;83.19
44453;BME280;30155;52.164;21.236;2024-02-26T06:21:52;99771.34;;;2.53;83.35
44453;BME280;30155;52.164;21.236;2024-02-26T06:26:43;99776.01;;;2.70;83.18
44453;BME280;30155;52.164;21.236;2024-02-26T06:31:35;99780.31;;;2.86;83.37
44453;BME280;30155;52.164;21.236;2024-02-26T06:36:26;99775.95;;;3.04;83.09
44453;BME280;30155;52.164;21.236;2024-02-26T06:41:18;99775.11;;;3.27;83.16
44453;BME280;30155;52.164;21.236;2024-02-26T06:46:09;99778.88;;;3.50;83.22
44453;BME280;30155;52.164;21.236;2024-02-26T06:51:01;99780.93;;;3.72;83.36
44453;BME280;30155;52.164;21.236;2024-02-26T06:55:53;99781.41;;;3.95;83.31
44453;BME280;30155;52.164;21.236;2024-02-26T07:00:44;99787.90;;;4.12;83.42
44453;BME280;30155;52.164;21.236;2024-02-26T07:05:37;99792.48;;;4.22;83.48
44453;BME280;30155;52.164;21.236;2024-02-26T07:10:28;99791.48;;;4.30;83.41
44453;BME280;30155;52.164;21.236;2024-02-26T07:15:19;99794.09;;;4.31;83.49
44453;BME280;30155;52.164;21.236;2024-02-26T07:20:12;99795.91;;;4.29;83.55
44453;BME280;30155;52.164;21.236;2024-02-26T07:25:04;99796.79;;;4.24;83.59
44453;BME280;30155;52.164;21.236;2024-02-26T07:29:57;99796.52;;;4.19;83.96
44453;BME280;30155;52.164;21.236;2024-02-26T07:34:49;99799.83;;;4.21;84.24
44453;BME280;30155;52.164;21.236;2024-02-26T07:39:40;99807.77;;;4.42;84.36
44453;BME280;30155;52.164;21.236;2024-02-26T07:44:33;99807.50;;;4.65;84.33
44453;BME280;30155;52.164;21.236;2024-02-26T07:49:24;99808.73;;;4.72;85.05
44453;BME280;30155;52.164;21.236;2024-02-26T07:54:16;99812.37;;;4.87;85.28
44453;BME280;30155;52.164;21.236;2024-02-26T07:59:08;99811.09;;;5.48;85.48
44453;BME280;30155;52.164;21.236;2024-02-26T08:04:00;99804.54;;;6.18;85.42
44453;BME280;30155;52.164;21.236;2024-02-26T08:08:52;99807.89;;;6.87;84.79
44453;BME280;30155;52.164;21.236;2024-02-26T08:13:43;99805.66;;;7.63;85.00
44453;BME280;30155;52.164;21.236;2024-02-26T08:18:35;99808.05;;;7.87;85.64
44453;BME280;30155;52.164;21.236;2024-02-26T08:23:27;99810.08;;;9.10;85.14
44453;BME280;30155;52.164;21.236;2024-02-26T08:28:18;99810.89;;;10.76;82.67
44453;BME280;30155;52.164;21.236;2024-02-26T08:33:10;99803.75;;;12.47;79.83
44453;BME280;30155;52.164;21.236;2024-02-26T08:38:02;99808.96;;;12.51;78.63
44453;BME280;30155;52.164;21.236;2024-02-26T08:42:54;99810.39;;;12.01;79.58
44453;BME280;30155;52.164;21.236;2024-02-26T08:47:46;99818.27;;;11.50;79.81
44453;BME280;30155;52.164;21.236;2024-02-26T08:52:38;99823.85;;;11.00;80.45
44453;BME280;30155;52.164;21.236;2024-02-26T08:57:30;99835.23;;;10.68;80.90
44453;BME280;30155;52.164;21.236;2024-02-26T09:02:24;99835.64;;;10.34;81.38
44453;BME280;30155;52.164;21.236;2024-02-26T09:07:15;99834.83;;;10.09;81.99
44453;BME280;30155;52.164;21.236;2024-02-26T09:12:07;99842.02;;;9.94;82.34
44453;BME280;30155;52.164;21.236;2024-02-26T09:16:59;99840.92;;;9.85;82.61
44453;BME280;30155;52.164;21.236;2024-02-26T09:21:50;99844.17;;;9.77;82.83
44453;BME280;30155;52.164;21.236;2024-02-26T09:26:55;99843.09;;;9.71;83.16
44453;BME280;30155;52.164;21.236;2024-02-26T09:31:46;99846.71;;;9.69;83.30
44453;BME280;30155;52.164;21.236;2024-02-26T09:36:38;99854.81;;;9.66;83.34
44453;BME280;30155;52.164;21.236;2024-02-26T09:41:30;99854.60;;;9.59;83.54
44453;BME280;30155;52.164;21.236;2024-02-26T09:46:24;99858.02;;;9.54;83.42
44453;BME280;30155;52.164;21.236;2024-02-26T09:51:17;99860.94;;;9.51;83.82
44453;BME280;30155;52.164;21.236;2024-02-26T09:56:11;99865.08;;;9.49;83.96
44453;BME280;30155;52.164;21.236;2024-02-26T10:01:05;99870.78;;;9.48;84.01
44453;BME280;30155;52.164;21.236;2024-02-26T10:06:00;99872.55;;;9.53;84.00
44453;BME280;30155;52.164;21.236;2024-02-26T10:10:54;99866.20;;;9.62;84.06
44453;BME280;30155;52.164;21.236;2024-02-26T10:15:47;99866.49;;;9.78;83.90
44453;BME280;30155;52.164;21.236;2024-02-26T10:20:46;99865.25;;;10.01;83.71
44453;BME280;30155;52.164;21.236;2024-02-26T10:25:56;99853.27;;;10.30;83.26
44453;BME280;30155;52.164;21.236;2024-02-26T10:30:47;99851.34;;;10.62;83.00
44453;BME280;30155;52.164;21.236;2024-02-26T10:35:44;99847.95;;;10.99;81.95
44453;BME280;30155;52.164;21.236;2024-02-26T10:40:37;99849.52;;;11.59;80.97
44453;BME280;30155;52.164;21.236;2024-02-26T10:45:28;99853.32;;;11.94;80.26
44453;BME280;30155;52.164;21.236;2024-02-26T10:50:20;99854.33;;;12.05;79.91
44453;BME280;30155;52.164;21.236;2024-02-26T10:55:17;99846.36;;;12.43;79.84
44453;BME280;30155;52.164;21.236;2024-02-26T11:00:15;99840.41;;;13.34;78.29
44453;BME280;30155;52.164;21.236;2024-02-26T11:05:08;99845.00;;;13.25;78.13
44453;BME280;30155;52.164;21.236;2024-02-26T11:10:00;99835.58;;;14.03;76.33
44453;BME280;30155;52.164;21.236;2024-02-26T11:14:52;99827.94;;;14.16;75.69
44453;BME280;30155;52.164;21.236;2024-02-26T11:19:46;99823.70;;;14.21;75.02
44453;BME280;30155;52.164;21.236;2024-02-26T11:24:38;99814.96;;;16.57;72.12
44453;BME280;30155;52.164;21.236;2024-02-26T11:29:52;99816.11;;;16.95;70.69
44453;BME280;30155;52.164;21.236;2024-02-26T11:34:45;99820.15;;;16.38;69.87
44453;BME280;30155;52.164;21.236;2024-02-26T11:39:37;99823.29;;;15.86;70.36
44453;BME280;30155;52.164;21.236;2024-02-26T11:44:30;99817.29;;;15.69;70.02
44453;BME280;30155;52.164;21.236;2024-02-26T11:54:44;99827.51;;;15.02;70.28
44453;BME280;30155;52.164;21.236;2024-02-26T11:59:39;99820.42;;;16.46;68.86
44453;BME280;30155;52.164;21.236;2024-02-26T12:04:32;99811.16;;;18.48;65.33
44453;BME280;30155;52.164;21.236;2024-02-26T12:09:31;99804.80;;;18.32;64.64
44453;BME280;30155;52.164;21.236;2024-02-26T12:14:25;99807.42;;;17.15;64.75
44453;BME280;30155;52.164;21.236;2024-02-26T12:19:17;99809.39;;;16.99;66.76
44453;BME280;30155;52.164;21.236;2024-02-26T12:24:18;99804.47;;;17.07;66.11
44453;BME280;30155;52.164;21.236;2024-02-26T12:29:12;99812.15;;;16.85;66.47
44453;BME280;30155;52.164;21.236;2024-02-26T12:34:04;99813.97;;;16.98;65.64
44453;BME280;30155;52.164;21.236;2024-02-26T12:38:56;99815.27;;;16.78;64.92
44453;BME280;30155;52.164;21.236;2024-02-26T12:43:48;99813.27;;;16.41;65.23
44453;BME280;30155;52.164;21.236;2024-02-26T12:48:46;99810.82;;;16.33;65.21
44453;BME280;30155;52.164;21.236;2024-02-26T12:53:38;99809.50;;;16.13;65.00
44453;BME280;30155;52.164;21.236;2024-02-26T12:58:31;99809.10;;;16.24;65.36
44453;BME280;30155;52.164;21.236;2024-02-26T13:03:23;99807.39;;;16.29;64.94
44453;BME280;30155;52.164;21.236;2024-02-26T13:08:19;99802.35;;;16.46;65.25
44453;BME280;30155;52.164;21.236;2024-02-26T13:13:11;99804.77;;;16.79;64.86
44453;BME280;30155;52.164;21.236;2024-02-26T13:18:13;99803.75;;;16.54;64.31
44453;BME280;30155;52.164;21.236;2024-02-26T13:23:06;99801.69;;;16.44;64.12
44453;BME280;30155;52.164;21.236;2024-02-26T13:28:18;99804.61;;;15.94;63.59
44453;BME280;30155;52.164;21.236;2024-02-26T13:33:12;99812.48;;;15.23;64.60
44453;BME280;30155;52.164;21.236;2024-02-26T13:38:04;99817.23;;;14.89;65.09
44453;BME280;30155;52.164;21.236;2024-02-26T13:42:56;99813.03;;;14.66;65.64
44453;BME280;30155;52.164;21.236;2024-02-26T13:47:47;99814.52;;;14.59;65.77
44453;BME280;30155;52.164;21.236;2024-02-26T13:52:39;99820.87;;;14.66;65.84
44453;BME280;30155;52.164;21.236;2024-02-26T13:57:31;99819.46;;;14.91;65.94
44453;BME280;30155;52.164;21.236;2024-02-26T14:02:22;99820.13;;;15.04;65.70
44453;BME280;30155;52.164;21.236;2024-02-26T14:07:14;99820.24;;;15.09;65.75
44453;BME280;30155;52.164;21.236;2024-02-26T14:12:08;99814.58;;;15.03;65.89
44453;BME280;30155;52.164;21.236;2024-02-26T14:16:59;99808.31;;;14.90;66.03
44453;BME280;30155;52.164;21.236;2024-02-26T14:21:52;99799.15;;;14.73;65.95
44453;BME280;30155;52.164;21.236;2024-02-26T14:26:43;99807.35;;;14.45;66.27
44453;BME280;30155;52.164;21.236;2024-02-26T14:31:35;99815.34;;;14.20;66.56
44453;BME280;30155;52.164;21.236;2024-02-26T14:36:26;99816.77;;;14.02;66.89
44453;BME280;30155;52.164;21.236;2024-02-26T14:41:18;99815.95;;;13.83;67.21
44453;BME280;30155;52.164;21.236;2024-02-26T14:46:09;99820.14;;;13.63;67.20
44453;BME280;30155;52.164;21.236;2024-02-26T14:51:00;99820.34;;;13.44;67.89
44453;BME280;30155;52.164;21.236;2024-02-26T14:55:52;99824.31;;;13.23;68.45
44453;BME280;30155;52.164;21.236;2024-02-26T15:00:43;99833.48;;;13.05;68.91
44453;BME280;30155;52.164;21.236;2024-02-26T15:05:35;99829.61;;;12.85;69.28
44453;BME280;30155;52.164;21.236;2024-02-26T15:10:27;99833.73;;;12.70;69.66
44453;BME280;30155;52.164;21.236;2024-02-26T15:15:19;99836.06;;;12.55;70.06
44453;BME280;30155;52.164;21.236;2024-02-26T15:20:11;99843.92;;;12.45;70.51
44453;BME280;30155;52.164;21.236;2024-02-26T15:25:03;99850.05;;;12.35;70.88
44453;BME280;30155;52.164;21.236;2024-02-26T15:29:55;99845.74;;;12.25;71.28
44453;BME280;30155;52.164;21.236;2024-02-26T15:34:49;99844.23;;;12.19;71.56
44453;BME280;30155;52.164;21.236;2024-02-26T15:39:41;99851.55;;;12.09;71.98
44453;BME280;30155;52.164;21.236;2024-02-26T15:44:32;99857.13;;;11.96;72.50
44453;BME280;30155;52.164;21.236;2024-02-26T15:49:24;99863.04;;;11.80;72.88
44453;BME280;30155;52.164;21.236;2024-02-26T15:54:18;99862.55;;;11.66;73.17
44453;BME280;30155;52.164;21.236;2024-02-26T15:59:10;99866.17;;;11.52;73.60
44453;BME280;30155;52.164;21.236;2024-02-26T16:04:01;99866.71;;;11.34;73.90
44453;BME280;30155;52.164;21.236;2024-02-26T16:08:53;99863.23;;;11.15;74.31
44453;BME280;30155;52.164;21.236;2024-02-26T16:13:44;99863.04;;;10.99;74.78
44453;BME280;30155;52.164;21.236;2024-02-26T16:18:36;99869.08;;;10.87;75.15
44453;BME280;30155;52.164;21.236;2024-02-26T16:23:27;99869.77;;;10.79;75.56
44453;BME280;30155;52.164;21.236;2024-02-26T16:28:19;99888.45;;;10.72;75.78
44453;BME280;30155;52.164;21.236;2024-02-26T16:33:12;99892.79;;;10.69;76.14
44453;BME280;30155;52.164;21.236;2024-02-26T16:38:04;99898.31;;;10.67;76.29
44453;BME280;30155;52.164;21.236;2024-02-26T16:42:55;99902.30;;;10.63;76.81
44453;BME280;30155;52.164;21.236;2024-02-26T16:47:47;99895.70;;;10.59;77.03
44453;BME280;30155;52.164;21.236;2024-02-26T16:52:38;99895.17;;;10.56;77.34
44453;BME280;30155;52.164;21.236;2024-02-26T16:57:30;99897.58;;;10.54;77.63
44453;BME280;30155;52.164;21.236;2024-02-26T17:02:21;99899.66;;;10.52;77.97
44453;BME280;30155;52.164;21.236;2024-02-26T17:07:13;99907.45;;;10.52;78.43
44453;BME280;30155;52.164;21.236;2024-02-26T17:12:07;99914.73;;;10.53;78.82
44453;BME280;30155;52.164;21.236;2024-02-26T17:17:00;99914.55;;;10.53;79.03
44453;BME280;30155;52.164;21.236;2024-02-26T17:21:55;99913.52;;;10.53;79.38
44453;BME280;30155;52.164;21.236;2024-02-26T17:26:46;99912.50;;;10.58;79.91
44453;BME280;30155;52.164;21.236;2024-02-26T17:31:38;99911.83;;;10.62;80.32
44453;BME280;30155;52.164;21.236;2024-02-26T17:36:33;99915.64;;;10.66;80.60
44453;BME280;30155;52.164;21.236;2024-02-26T17:41:25;99919.98;;;10.65;80.61
44453;BME280;30155;52.164;21.236;2024-02-26T17:46:16;99923.45;;;10.65;80.92
44453;BME280;30155;52.164;21.236;2024-02-26T17:51:09;99919.27;;;10.62;80.97
44453;BME280;30155;52.164;21.236;2024-02-26T17:56:02;99915.61;;;10.59;81.42
44453;BME280;30155;52.164;21.236;2024-02-26T18:00:57;99916.30;;;10.58;81.70
44453;BME280;30155;52.164;21.236;2024-02-26T18:05:48;99918.39;;;10.58;81.92
44453;BME280;30155;52.164;21.236;2024-02-26T18:10:40;99923.59;;;10.57;82.11
44453;BME280;30155;52.164;21.236;2024-02-26T18:15:32;99929.83;;;10.56;82.31
44453;BME280;30155;52.164;21.236;2024-02-26T18:20:25;99930.50;;;10.54;82.47
44453;BME280;30155;52.164;21.236;2024-02-26T18:25:16;99927.55;;;10.52;82.73
44453;BME280;30155;52.164;21.236;2024-02-26T18:30:08;99929.28;;;10.51;82.87
44453;BME280;30155;52.164;21.236;2024-02-26T18:35:02;99928.23;;;10.50;83.07
44453;BME280;30155;52.164;21.236;2024-02-26T18:39:55;99931.85;;;10.47;83.16
44453;BME280;30155;52.164;21.236;2024-02-26T18:44:47;99932.19;;;10.45;83.49
44453;BME280;30155;52.164;21.236;2024-02-26T18:49:39;99930.63;;;10.42;83.57
44453;BME280;30155;52.164;21.236;2024-02-26T18:54:31;99928.52;;;10.39;83.93
44453;BME280;30155;52.164;21.236;2024-02-26T18:59:27;99929.20;;;10.36;84.06
44453;BME280;30155;52.164;21.236;2024-02-26T19:04:19;99926.94;;;10.34;84.27
44453;BME280;30155;52.164;21.236;2024-02-26T19:09:10;99934.55;;;10.32;84.33
44453;BME280;30155;52.164;21.236;2024-02-26T19:14:02;99938.33;;;10.29;84.37
44453;BME280;30155;52.164;21.236;2024-02-26T19:18:54;99936.71;;;10.23;84.44
44453;BME280;30155;52.164;21.236;2024-02-26T19:23:46;99940.18;;;10.21;84.78
44453;BME280;30155;52.164;21.236;2024-02-26T19:28:37;99939.48;;;10.20;85.24
44453;BME280;30155;52.164;21.236;2024-02-26T19:33:34;99940.35;;;10.21;85.55
44453;BME280;30155;52.164;21.236;2024-02-26T19:38:25;99937.23;;;10.22;85.64
44453;BME280;30155;52.164;21.236;2024-02-26T19:43:17;99952.46;;;10.20;85.72
44453;BME280;30155;52.164;21.236;2024-02-26T19:48:08;99955.73;;;10.17;85.96
44453;BME280;30155;52.164;21.236;2024-02-26T19:53:00;99947.08;;;10.18;86.22
44453;BME280;30155;52.164;21.236;2024-02-26T19:57:51;99956.43;;;10.18;86.19
44453;BME280;30155;52.164;21.236;2024-02-26T20:02:45;99952.26;;;10.16;86.18
44453;BME280;30155;52.164;21.236;2024-02-26T20:07:41;99952.77;;;10.12;86.17
44453;BME280;30155;52.164;21.236;2024-02-26T20:12:36;99948.41;;;10.09;86.38
44453;BME280;30155;52.164;21.236;2024-02-26T20:17:27;99957.23;;;10.07;86.58
44453;BME280;30155;52.164;21.236;2024-02-26T20:22:20;99951.00;;;10.07;86.89
44453;BME280;30155;52.164;21.236;2024-02-26T20:27:16;99950.80;;;10.06;86.95
44453;BME280;30155;52.164;21.236;2024-02-26T20:32:07;99952.87;;;10.03;87.08
44453;BME280;30155;52.164;21.236;2024-02-26T20:36:59;99954.08;;;10.00;87.20
44453;BME280;30155;52.164;21.236;2024-02-26T20:41:51;99952.84;;;10.00;87.47
44453;BME280;30155;52.164;21.236;2024-02-26T20:46:44;99958.88;;;9.96;87.35
44453;BME280;30155;52.164;21.236;2024-02-26T20:51:37;99952.27;;;9.94;87.57
44453;BME280;30155;52.164;21.236;2024-02-26T20:56:30;99956.08;;;9.92;87.66
44453;BME280;30155;52.164;21.236;2024-02-26T21:01:22;99953.13;;;9.90;87.66
44453;BME280;30155;52.164;21.236;2024-02-26T21:06:13;99956.05;;;9.88;87.87
44453;BME280;30155;52.164;21.236;2024-02-26T21:11:05;99959.30;;;9.82;87.96
44453;BME280;30155;52.164;21.236;2024-02-26T21:15:57;99965.84;;;9.77;88.08
44453;BME280;30155;52.164;21.236;2024-02-26T21:20:50;99967.36;;;9.74;88.28
44453;BME280;30155;52.164;21.236;2024-02-26T21:25:43;99973.91;;;9.71;88.42
44453;BME280;30155;52.164;21.236;2024-02-26T21:30:35;99977.52;;;9.68;88.22
44453;BME280;30155;52.164;21.236;2024-02-26T21:35:26;99978.02;;;9.66;88.26
44453;BME280;30155;52.164;21.236;2024-02-26T21:40:19;99981.97;;;9.64;88.43
44453;BME280;30155;52.164;21.236;2024-02-26T21:45:11;99982.83;;;9.62;88.47
44453;BME280;30155;52.164;21.236;2024-02-26T21:50:06;99983.67;;;9.60;88.65
44453;BME280;30155;52.164;21.236;2024-02-26T21:54:58;99987.81;;;9.57;88.54
44453;BME280;30155;52.164;21.236;2024-02-26T21:59:49;99989.52;;;9.56;88.83
44453;BME280;30155;52.164;21.236;2024-02-26T22:04:41;99994.02;;;9.54;88.89
44453;BME280;30155;52.164;21.236;2024-02-26T22:09:32;99998.66;;;9.51;88.91
44453;BME280;30155;52.164;21.236;2024-02-26T22:14:24;100006.58;;;9.48;89.04
44453;BME280;30155;52.164;21.236;2024-02-26T22:19:16;100011.77;;;9.49;89.32
44453;BME280;30155;52.164;21.236;2024-02-26T22:24:09;100011.29;;;9.53;89.75
44453;BME280;30155;52.164;21.236;2024-02-26T22:29:01;100014.77;;;9.54;89.74
44453;BME280;30155;52.164;21.236;2024-02-26T22:33:54;100016.45;;;9.50;89.77
44453;BME280;30155;52.164;21.236;2024-02-26T22:38:46;100017.30;;;9.48;89.97
44453;BME280;30155;52.164;21.236;2024-02-26T22:43:38;100024.89;;;9.46;90.13
44453;BME280;30155;52.164;21.236;2024-02-26T22:48:29;100030.40;;;9.44;90.28
44453;BME280;30155;52.164;21.236;2024-02-26T22:53:24;100034.86;;;9.40;90.28
44453;BME280;30155;52.164;21.236;2024-02-26T22:58:16;100036.70;;;9.35;90.26
44453;BME280;30155;52.164;21.236;2024-02-26T23:03:07;100038.03;;;9.29;90.07
44453;BME280;30155;52.164;21.236;2024-02-26T23:07:59;100041.08;;;9.24;90.13
44453;BME280;30155;52.164;21.236;2024-02-26T23:12:51;100038.07;;;9.18;90.10
44453;BME280;30155;52.164;21.236;2024-02-26T23:17:43;100044.21;;;9.11;90.28
44453;BME280;30155;52.164;21.236;2024-02-26T23:22:36;100045.02;;;9.06;90.30
44453;BME280;30155;52.164;21.236;2024-02-26T23:27:29;100048.36;;;8.97;90.17
44453;BME280;30155;52.164;21.236;2024-02-26T23:32:22;100042.90;;;8.89;90.17
44453;BME280;30155;52.164;21.236;2024-02-26T23:37:13;100043.48;;;8.81;90.19
44453;BME280;30155;52.164;21.236;2024-02-26T23:42:05;100047.52;;;8.73;90.12
44453;BME280;30155;52.164;21.236;2024-02-26T23:46:57;100049.67;;;8.66;90.53
44453;BME280;30155;52.164;21.236;2024-02-26T23:51:48;100054.93;;;8.59;90.31
44453;BME280;30155;52.164;21.236;2024-02-26T23:56:40;100059.98;;;8.50;90.30
